テヘラン の空港の天気 - METARとTAF

メヘラーバード国際空港(テヘラン) ( OIII / THR ) - イラン テヘラン
飛行場実況気象(Metar)
観測時間05/23 05:00 IRDT (05/23 00:30 UTC)
風向・風速静穏 0m/s
視程10km以上
天気現象
少しの雲 雲底高度 3050m
全天の8割程度の雲 雲底高度 6100m
気温18℃
湿度56%
気圧1021hPa
METAROIII 230030Z 00000KT 9999 FEW100 BKN200 18/09 Q1021 A3018
過去の天気等 Google飛行場航空写真 Wunderground天気予報

過去48時間のMETAR

飛行場予報(TAF)
発表時間: 5/23 03:30 IRDT (5/22 23:00 UTC)
予報対象時間: 23日4時 IRDT ~ 24日10時 IRDT
風向・風速南南西 4m/s
視程7,000m
少しの雲 雲底高度 1,220m
全天の8割程度の雲 雲底高度 3,050m
23日5時 IRDT ~ 23日7時 IRDT に徐々に
少しの積乱雲 雲底高度 910m
全天の4割程度の雲 雲底高度 1,220m
全天の8割程度の雲 雲底高度 3,050m
23日7時 IRDT ~ 23日13時 IRDT に一時的に
風向・風速北西 9m/s
視程4,000m
天気現象雷雨
少しの積乱雲 雲底高度 910m
全天の4割程度の雲 雲底高度 1,070m
全天の8割程度の雲 雲底高度 2,740m
23日13時 IRDT ~ 23日22時 IRDT に一時的に
風向・風速北西 8m/s 瞬間風速 14m/s
視程3,000m
天気現象雷雨
全天の4割程度の積乱雲 雲底高度 910m
全天の4割程度の雲 雲底高度 1,220m
全天を覆う雲 雲底高度 2,740m
TAF OIII 222300Z 2300/2406 20004MPS 7000 FEW040 BKN100
BECMG 2301/2303 FEW030CB SCT040 BKN100
TEMPO 2303/2309 32009MPS 4000 TSRA FEW030CB SCT035 BKN090
TEMPO 2309/2318 32008G14MPS 3000 TSRA SCT030CB SCT040 OVC090